Terminal Aerodrome Forecast
Issued by NWS

Home | Current Version | Previous Version | Text Only | Print | Product List | Glossary On
Versions: 1 2 3 4 5 6 7 8 9 10 11 12 13
000
FTUS44 KEPZ 281800 RRA
TAFTCS
TAF
KTCS 281803Z 2818/2918 14006KT P6SM VCSH SCT090 BKN250
     FM282100 20009KT P6SM VCTS SCT080CB BKN120 BKN250
     FM290600 VRB05KT P6SM SCT120 BKN250=

USA.gov is the U.S. government's official web portal to all federal, state and local government web resources and services.